createdAt,value
2022-09-16T00:02:25.242Z,100376.78
2022-09-16T00:05:27.000Z,100380.41
2022-09-16T00:08:28.603Z,100378.09
2022-09-16T00:11:34.541Z,100376.53
2022-09-16T00:14:36.109Z,100369.47
2022-09-16T00:17:38.496Z,100385.47
2022-09-16T00:20:51.361Z,100397.13
2022-09-16T00:23:53.300Z,100390.22
2022-09-16T00:26:55.214Z,100402.69
2022-09-16T00:29:56.850Z,100409.94
2022-09-16T00:32:58.450Z,100395.63
2022-09-16T00:36:10.838Z,100384.25
2022-09-16T00:39:12.507Z,100389.81
2022-09-16T00:42:14.240Z,100381.81
2022-09-16T00:45:21.695Z,100381.09
2022-09-16T00:48:26.104Z,100375.97
2022-09-16T00:51:28.978Z,100380.72
2022-09-16T00:54:34.165Z,100382.50
2022-09-16T00:57:36.828Z,100379.13
2022-09-16T01:00:38.925Z,100386.25
2022-09-16T01:03:46.807Z,100378.28
2022-09-16T01:06:49.527Z,100380.06
2022-09-16T01:09:51.039Z,100382.88
2022-09-16T01:12:57.263Z,100382.97
2022-09-16T01:16:01.559Z,100375.97
2022-09-16T01:19:12.171Z,100378.63
2022-09-16T01:22:25.678Z,100384.16
2022-09-16T01:25:37.157Z,100386.09
2022-09-16T01:28:59.738Z,100380.78
2022-09-16T01:32:03.966Z,100385.38
2022-09-16T01:35:20.654Z,100381.72
2022-09-16T01:38:42.949Z,100381.84
2022-09-16T01:41:56.729Z,100374.81
2022-09-16T01:45:14.006Z,100376.63
2022-09-16T01:48:25.336Z,100382.09
2022-09-16T01:51:34.988Z,100382.94
2022-09-16T01:54:49.492Z,100382.22
2022-09-16T01:58:08.777Z,100379.53
2022-09-16T02:01:41.023Z,100388.50
2022-09-16T02:04:49.433Z,100378.81
2022-09-16T02:07:57.609Z,100386.81
2022-09-16T02:11:01.899Z,100381.47
2022-09-16T02:14:13.439Z,100383.16
2022-09-16T02:17:20.366Z,100384.00
2022-09-16T02:20:27.920Z,100366.31
2022-09-16T02:23:34.506Z,100370.06
2022-09-16T02:26:40.816Z,100362.34
2022-09-16T02:29:51.728Z,100370.41
2022-09-16T02:33:02.396Z,100360.84
2022-09-16T02:36:06.834Z,100352.13
2022-09-16T02:39:11.620Z,100346.06
2022-09-16T02:42:13.482Z,100348.81
2022-09-16T02:45:15.551Z,100348.09
2022-09-16T02:48:27.204Z,100346.41
2022-09-16T02:51:47.258Z,100347.47
2022-09-16T02:55:00.722Z,100345.75
2022-09-16T02:58:02.308Z,100354.59
2022-09-16T03:01:03.996Z,100355.66
2022-09-16T03:04:05.684Z,100350.44
2022-09-16T03:07:10.558Z,100358.56
2022-09-16T03:10:15.023Z,100354.31
2022-09-16T03:13:55.104Z,100357.09
2022-09-16T03:17:30.632Z,100363.38
2022-09-16T03:20:54.973Z,100362.63
2022-09-16T03:24:31.814Z,100365.31
2022-09-16T03:27:42.362Z,100363.59
2022-09-16T03:31:08.854Z,100358.38
2022-09-16T03:34:19.705Z,100352.94
2022-09-16T03:37:23.647Z,100354.78
2022-09-16T03:40:29.706Z,100352.00
2022-09-16T03:43:31.463Z,100349.19
2022-09-16T03:46:33.300Z,100351.78
2022-09-16T03:49:36.096Z,100349.09
2022-09-16T03:52:37.603Z,100346.44
2022-09-16T03:55:39.210Z,100346.31
2022-09-16T03:58:40.741Z,100348.13
2022-09-16T04:01:42.325Z,100348.13
2022-09-16T04:04:43.913Z,100370.41
2022-09-16T04:07:45.477Z,100359.75
2022-09-16T04:11:02.186Z,100344.63
2022-09-16T04:14:04.899Z,100335.78
2022-09-16T04:17:06.435Z,100348.25
2022-09-16T04:20:08.661Z,100342.19
2022-09-16T04:23:10.249Z,100341.34
2022-09-16T04:26:12.141Z,100336.88
2022-09-16T04:29:13.764Z,100335.16
2022-09-16T04:32:15.480Z,100341.34
2022-09-16T04:35:19.541Z,100330.69
2022-09-16T04:38:21.069Z,100326.22
2022-09-16T04:41:25.581Z,100321.84
2022-09-16T04:44:27.630Z,100319.31
2022-09-16T04:47:29.517Z,100312.19
2022-09-16T04:50:31.037Z,100319.41
2022-09-16T04:53:33.266Z,100319.53
2022-09-16T04:56:35.473Z,100324.13
2022-09-16T04:59:37.053Z,100322.41
2022-09-16T05:02:38.620Z,100322.63
2022-09-16T05:05:40.162Z,100326.28
2022-09-16T05:08:42.405Z,100318.53
2022-09-16T05:11:44.201Z,100321.31
2022-09-16T05:14:45.765Z,100318.72
2022-09-16T05:17:51.357Z,100335.69
2022-09-16T05:21:04.832Z,100333.03
2022-09-16T05:24:11.928Z,100318.94
2022-09-16T05:27:13.476Z,100320.88
2022-09-16T05:30:16.105Z,100309.38
2022-09-16T05:33:17.685Z,100314.63
2022-09-16T05:36:19.608Z,100303.06
2022-09-16T05:39:23.610Z,100306.88
2022-09-16T05:42:25.987Z,100319.81
2022-09-16T05:45:32.019Z,100320.34
2022-09-16T05:48:35.174Z,100328.06
2022-09-16T05:51:38.690Z,100324.13
2022-09-16T05:54:40.206Z,100320.41
2022-09-16T05:57:41.808Z,100323.13
2022-09-16T06:00:43.488Z,100331.34
2022-09-16T06:03:46.871Z,100324.72
2022-09-16T06:06:48.573Z,100332.13
2022-09-16T06:09:50.219Z,100320.28
2022-09-16T06:12:51.744Z,100321.75
2022-09-16T06:15:56.727Z,100317.63
2022-09-16T06:19:00.123Z,100323.69
2022-09-16T06:22:01.736Z,100315.69
2022-09-16T06:25:03.497Z,100322.00
2022-09-16T06:28:06.745Z,100309.63
2022-09-16T06:31:12.202Z,100311.44
2022-09-16T06:34:18.616Z,100310.63
2022-09-16T06:37:20.344Z,100307.09
2022-09-16T06:40:22.035Z,100303.59
2022-09-16T06:43:23.817Z,100303.59
2022-09-16T06:46:27.842Z,100302.50
2022-09-16T06:49:29.456Z,100308.69
2022-09-16T06:52:31.847Z,100296.22
2022-09-16T06:55:34.657Z,100309.19
2022-09-16T06:58:37.486Z,100286.78
2022-09-16T07:01:39.062Z,100302.50
2022-09-16T07:04:40.872Z,100298.03
2022-09-16T07:07:42.449Z,100309.41
2022-09-16T07:10:43.968Z,100307.59
2022-09-16T07:13:49.535Z,100292.47
2022-09-16T07:16:51.790Z,100283.38
2022-09-16T07:19:53.922Z,100283.00
2022-09-16T07:22:55.544Z,100299.41
2022-09-16T07:26:26.373Z,100298.75
2022-09-16T07:29:28.153Z,100291.50
2022-09-16T07:32:30.116Z,100289.34
2022-09-16T07:35:31.745Z,100294.06
2022-09-16T07:38:33.702Z,100298.03
2022-09-16T07:41:38.457Z,100301.31
2022-09-16T07:44:40.121Z,100296.63
2022-09-16T07:47:41.788Z,100297.06
2022-09-16T07:50:43.409Z,100304.59
2022-09-16T07:53:45.818Z,100303.38
2022-09-16T07:56:47.819Z,100307.50
2022-09-16T07:59:49.562Z,100309.94
2022-09-16T08:02:56.946Z,100307.75
2022-09-16T08:06:03.937Z,100303.84
2022-09-16T08:09:15.638Z,100308.94
2022-09-16T08:12:32.291Z,100304.19
2022-09-16T08:15:34.147Z,100312.91
2022-09-16T08:18:35.696Z,100315.09
2022-09-16T08:21:37.291Z,100319.81
2022-09-16T08:24:38.820Z,100319.31
2022-09-16T08:27:40.389Z,100316.84
2022-09-16T08:30:43.305Z,100312.56
2022-09-16T08:33:45.081Z,100316.66
2022-09-16T08:36:47.034Z,100311.94
2022-09-16T08:39:49.100Z,100317.13
2022-09-16T08:43:19.917Z,100313.38
2022-09-16T08:46:39.952Z,100311.88
2022-09-16T08:49:46.627Z,100305.31
2022-09-16T08:52:50.278Z,100312.94
2022-09-16T08:55:52.633Z,100306.59
2022-09-16T08:58:58.148Z,100311.63
2022-09-16T09:02:09.107Z,100313.19
2022-09-16T09:05:18.108Z,100304.06
2022-09-16T09:08:51.138Z,100305.63
2022-09-16T09:11:59.529Z,100301.44
2022-09-16T09:15:13.558Z,100295.56
2022-09-16T09:18:37.151Z,100306.44
2022-09-16T09:22:07.749Z,100295.25
2022-09-16T09:25:24.695Z,100298.94
2022-09-16T09:28:48.428Z,100291.09
2022-09-16T09:32:12.678Z,100293.22
2022-09-16T09:35:38.757Z,100301.31
2022-09-16T09:39:17.750Z,100296.00
2022-09-16T09:42:29.381Z,100288.72
2022-09-16T09:45:36.743Z,100289.00
2022-09-16T09:48:50.665Z,100294.91
2022-09-16T09:52:00.206Z,100317.31
2022-09-16T09:55:16.266Z,100288.56
2022-09-16T09:58:24.511Z,100282.22
2022-09-16T10:01:26.150Z,100284.03
2022-09-16T10:04:38.070Z,100312.88
2022-09-16T10:07:39.689Z,100279.41
2022-09-16T10:10:52.664Z,100268.38
2022-09-16T10:13:58.062Z,100283.53
2022-09-16T10:17:04.996Z,100276.16
2022-09-16T10:20:25.039Z,100292.16
2022-09-16T10:23:29.865Z,100274.22
2022-09-16T10:26:40.774Z,100284.75
2022-09-16T10:29:42.616Z,100272.03
2022-09-16T10:32:51.822Z,100269.03
2022-09-16T10:36:03.158Z,100268.19
2022-09-16T10:39:05.767Z,100269.56
2022-09-16T10:42:21.010Z,100259.97
2022-09-16T10:45:29.276Z,100250.84
2022-09-16T10:48:33.747Z,100251.09
2022-09-16T10:51:35.423Z,100255.22
2022-09-16T10:54:37.049Z,100245.63
2022-09-16T10:57:41.902Z,100253.50
2022-09-16T11:01:22.615Z,100255.78
2022-09-16T11:04:24.598Z,100264.09
2022-09-16T11:07:56.937Z,100264.25
2022-09-16T11:11:11.105Z,100275.34
2022-09-16T11:14:25.768Z,100276.72
2022-09-16T11:17:27.318Z,100274.00
2022-09-16T11:20:50.688Z,100270.69
2022-09-16T11:24:20.968Z,100267.13
2022-09-16T11:27:41.053Z,100255.72
2022-09-16T11:31:26.046Z,100257.94
2022-09-16T11:35:01.711Z,100264.25
2022-09-16T11:38:42.367Z,100270.78
2022-09-16T11:42:01.998Z,100248.28
2022-09-16T11:45:12.616Z,100247.75
2022-09-16T11:48:14.204Z,100245.72
2022-09-16T11:51:43.699Z,100257.88
2022-09-16T11:55:13.102Z,100238.16
2022-09-16T11:58:27.764Z,100226.84
2022-09-16T12:01:35.891Z,100228.28
2022-09-16T12:04:53.538Z,100221.00
2022-09-16T12:08:04.546Z,100212.34
2022-09-16T12:11:36.603Z,100195.63
2022-09-16T12:14:45.700Z,100203.63
2022-09-16T12:18:02.417Z,100199.19
2022-09-16T12:21:25.626Z,100192.56
2022-09-16T12:25:07.331Z,100182.81
2022-09-16T12:28:29.345Z,100194.84
2022-09-16T12:31:46.651Z,100207.16
2022-09-16T12:34:58.298Z,100231.94
2022-09-16T12:38:01.120Z,100234.69
2022-09-16T12:41:24.157Z,100232.91
2022-09-16T12:44:38.227Z,100233.91
2022-09-16T12:48:21.129Z,100240.69
2022-09-16T12:51:50.503Z,100235.19
2022-09-16T12:55:26.331Z,100224.75
2022-09-16T12:58:56.935Z,100229.22
2022-09-16T13:02:37.416Z,100231.03
2022-09-16T13:05:40.136Z,100225.41
2022-09-16T13:08:42.415Z,100218.63
2022-09-16T13:12:31.801Z,100220.97
2022-09-16T13:15:27.518Z,100221.97
2022-09-16T13:18:45.397Z,100218.97
2022-09-16T13:21:48.475Z,100208.84
2022-09-16T13:24:56.043Z,100216.53
2022-09-16T13:28:02.481Z,100201.03
2022-09-16T13:31:14.276Z,100210.59
2022-09-16T13:34:18.015Z,100212.22
2022-09-16T13:37:26.240Z,100204.03
2022-09-16T13:40:30.558Z,100206.41
2022-09-16T13:43:37.473Z,100211.69
2022-09-16T13:46:39.373Z,100200.97
2022-09-16T13:49:46.727Z,100205.22
2022-09-16T13:52:49.115Z,100196.19
2022-09-16T13:55:52.387Z,100205.69
2022-09-16T13:59:04.425Z,100207.44
2022-09-16T14:02:30.736Z,100204.31
2022-09-16T14:05:47.568Z,100195.72
2022-09-16T14:09:12.185Z,100189.91
2022-09-16T14:12:27.579Z,100191.16
2022-09-16T14:15:36.543Z,100181.44
2022-09-16T14:18:43.005Z,100171.03
2022-09-16T14:21:44.621Z,100165.13
2022-09-16T14:24:48.388Z,100168.03
2022-09-16T14:28:15.584Z,100174.47
2022-09-16T14:31:20.997Z,100170.50
2022-09-16T14:34:30.870Z,100160.06
2022-09-16T14:37:32.705Z,100160.34
2022-09-16T14:40:39.888Z,100167.63
2022-09-16T14:43:41.925Z,100157.22
2022-09-16T14:46:47.835Z,100162.81
2022-09-16T14:49:57.353Z,100163.06
2022-09-16T14:53:01.266Z,100159.53
2022-09-16T14:56:03.947Z,100154.19
2022-09-16T14:59:06.711Z,100152.63
2022-09-16T15:02:18.550Z,100150.97
2022-09-16T15:05:32.543Z,100147.53
2022-09-16T15:08:47.082Z,100157.38
2022-09-16T15:11:53.301Z,100137.88
2022-09-16T15:14:55.335Z,100145.97
2022-09-16T15:17:59.238Z,100139.06
2022-09-16T15:21:21.378Z,100149.75
2022-09-16T15:24:27.753Z,100162.25
2022-09-16T15:27:32.628Z,100155.94
2022-09-16T15:30:35.172Z,100170.25
2022-09-16T15:33:41.306Z,100148.06
2022-09-16T15:36:42.905Z,100141.03
2022-09-16T15:39:44.547Z,100139.22
2022-09-16T15:42:48.460Z,100152.53
2022-09-16T15:46:16.235Z,100140.91
2022-09-16T15:49:19.953Z,100156.19
2022-09-16T15:52:22.113Z,100161.41
2022-09-16T15:55:32.690Z,100160.56
2022-09-16T15:58:53.408Z,100156.19
2022-09-16T16:01:58.812Z,100163.47
2022-09-16T16:05:30.480Z,100157.41
2022-09-16T16:08:46.029Z,100171.59
2022-09-16T16:11:47.668Z,100167.84
2022-09-16T16:14:49.360Z,100162.38
2022-09-16T16:17:53.545Z,100152.69
2022-09-16T16:20:55.180Z,100162.50
2022-09-16T16:23:56.772Z,100167.69
2022-09-16T16:26:58.352Z,100163.22
2022-09-16T16:29:59.930Z,100161.41
2022-09-16T16:33:01.446Z,100165.75
2022-09-16T16:36:04.019Z,100147.94
2022-09-16T16:39:05.610Z,100141.03
2022-09-16T16:42:08.226Z,100150.84
2022-09-16T16:45:12.192Z,100152.78
2022-09-16T16:48:13.750Z,100164.31
2022-09-16T16:51:15.324Z,100159.94
2022-09-16T16:54:18.354Z,100136.94
2022-09-16T16:57:20.096Z,100144.94
2022-09-16T17:00:21.737Z,100149.28
2022-09-16T17:03:23.328Z,100153.78
2022-09-16T17:06:25.457Z,100155.72
2022-09-16T17:09:27.056Z,100144.31
2022-09-16T17:12:28.650Z,100150.66
2022-09-16T17:15:30.348Z,100167.75
2022-09-16T17:18:34.853Z,100168.81
2022-09-16T17:21:36.562Z,100159.34
2022-09-16T17:24:38.115Z,100172.81
2022-09-16T17:27:39.668Z,100179.25
2022-09-16T17:30:43.657Z,100185.44
2022-09-16T17:33:45.953Z,100167.63
2022-09-16T17:36:47.676Z,100155.25
2022-09-16T17:39:49.811Z,100165.06
2022-09-16T17:42:52.176Z,100170.28
2022-09-16T17:45:53.895Z,100161.56
2022-09-16T17:49:04.624Z,100166.88
2022-09-16T17:52:06.396Z,100159.88
2022-09-16T17:55:08.330Z,100147.03
2022-09-16T17:58:10.136Z,100145.34
2022-09-16T18:01:14.522Z,100145.34
2022-09-16T18:04:16.119Z,100150.78
2022-09-16T18:07:18.625Z,100156.38
2022-09-16T18:10:20.561Z,100163.53
2022-09-16T18:13:22.964Z,100164.13
2022-09-16T18:16:26.045Z,100142.41
2022-09-16T18:19:27.805Z,100153.81
2022-09-16T18:22:29.393Z,100153.81
2022-09-16T18:25:31.234Z,100148.34
2022-09-16T18:28:58.120Z,100161.56
2022-09-16T18:31:58.501Z,100147.41
2022-09-16T18:35:00.429Z,100154.41
2022-09-16T18:38:02.190Z,100169.44
2022-09-16T18:41:04.819Z,100179.97
2022-09-16T18:44:20.818Z,100165.53
2022-09-16T18:47:22.917Z,100195.72
2022-09-16T18:50:24.600Z,100203.59
2022-09-16T18:53:26.205Z,100205.31
2022-09-16T18:56:30.804Z,100195.28
2022-09-16T18:59:34.451Z,100205.66
2022-09-16T19:02:37.438Z,100215.25
2022-09-16T19:05:39.146Z,100207.00
2022-09-16T19:08:40.799Z,100215.63
2022-09-16T19:11:43.230Z,100214.38
2022-09-16T19:14:44.953Z,100213.88
2022-09-16T19:17:46.601Z,100220.91
2022-09-16T19:20:48.343Z,100219.81
2022-09-16T19:24:13.985Z,100216.75
2022-09-16T19:27:15.670Z,100218.31
2022-09-16T19:30:17.410Z,100225.22
2022-09-16T19:33:18.998Z,100221.34
2022-09-16T19:36:24.694Z,100229.06
2022-09-16T19:39:27.210Z,100234.88
2022-09-16T19:42:28.810Z,100256.69
2022-09-16T19:45:30.532Z,100256.69
2022-09-16T19:48:34.402Z,100256.84
2022-09-16T19:51:36.036Z,100252.59
2022-09-16T19:54:37.618Z,100257.94
2022-09-16T19:57:39.290Z,100258.78
2022-09-16T20:00:55.463Z,100254.88
2022-09-16T20:03:58.381Z,100253.78
2022-09-16T20:07:00.218Z,100246.47
2022-09-16T20:10:01.893Z,100271.25
2022-09-16T20:13:03.441Z,100275.59
2022-09-16T20:16:08.190Z,100279.72
2022-09-16T20:19:14.959Z,100271.59
2022-09-16T20:22:16.479Z,100274.25
2022-09-16T20:25:23.289Z,100278.03
2022-09-16T20:28:30.210Z,100278.03
2022-09-16T20:31:34.383Z,100286.88
2022-09-16T20:34:36.287Z,100304.59
2022-09-16T20:37:38.063Z,100311.78
2022-09-16T20:40:39.845Z,100307.25
2022-09-16T20:43:41.912Z,100298.44
2022-09-16T20:46:43.749Z,100300.81
2022-09-16T20:49:45.318Z,100301.53
2022-09-16T20:52:48.789Z,100302.28
2022-09-16T20:55:50.427Z,100312.81
2022-09-16T20:58:52.109Z,100312.81
2022-09-16T21:01:53.858Z,100311.84
2022-09-16T21:04:55.483Z,100312.69
2022-09-16T21:07:57.984Z,100320.06
2022-09-16T21:11:05.581Z,100311.09
2022-09-16T21:14:07.711Z,100318.84
2022-09-16T21:17:09.312Z,100334.22
2022-09-16T21:20:10.928Z,100336.06
2022-09-16T21:23:12.987Z,100336.19
2022-09-16T21:26:23.899Z,100330.97
2022-09-16T21:29:25.542Z,100327.56
2022-09-16T21:32:27.118Z,100330.25
2022-09-16T21:35:28.736Z,100347.13
2022-09-16T21:38:30.312Z,100343.47
2022-09-16T21:41:31.977Z,100343.34
2022-09-16T21:44:33.514Z,100349.53
2022-09-16T21:47:35.084Z,100350.50
2022-09-16T21:50:37.813Z,100343.00
2022-09-16T21:53:43.607Z,100349.56
2022-09-16T21:56:45.298Z,100356.25
2022-09-16T21:59:46.837Z,100363.81
2022-09-16T22:02:48.418Z,100366.84
2022-09-16T22:05:50.053Z,100367.22
2022-09-16T22:08:53.223Z,100371.97
2022-09-16T22:11:55.411Z,100378.28
2022-09-16T22:14:57.032Z,100373.91
2022-09-16T22:17:58.771Z,100375.78
2022-09-16T22:21:09.488Z,100373.13
2022-09-16T22:24:11.987Z,100378.31
2022-09-16T22:27:13.661Z,100382.09
2022-09-16T22:30:15.290Z,100374.22
2022-09-16T22:33:16.900Z,100376.41
2022-09-16T22:36:20.921Z,100378.47
2022-09-16T22:39:22.749Z,100387.72
2022-09-16T22:42:24.344Z,100387.72
2022-09-16T22:45:25.932Z,100383.22
2022-09-16T22:48:27.555Z,100379.25
2022-09-16T22:51:29.401Z,100380.56
2022-09-16T22:54:31.236Z,100379.25
2022-09-16T22:57:32.774Z,100384.81
2022-09-16T23:00:38.474Z,100386.06
2022-09-16T23:03:43.361Z,100388.97
2022-09-16T23:06:45.019Z,100385.72
2022-09-16T23:09:47.171Z,100386.81
2022-09-16T23:12:51.562Z,100381.84
2022-09-16T23:15:55.736Z,100384.03
2022-09-16T23:19:01.398Z,100391.28
2022-09-16T23:22:02.994Z,100385.22
2022-09-16T23:25:05.076Z,100389.00
2022-09-16T23:28:06.626Z,100382.09
2022-09-16T23:31:10.890Z,100381.50
2022-09-16T23:34:19.083Z,100384.50
2022-09-16T23:37:20.686Z,100389.97
2022-09-16T23:40:22.424Z,100386.59
2022-09-16T23:43:24.818Z,100393.72
2022-09-16T23:46:29.325Z,100393.00
2022-09-16T23:49:30.934Z,100396.75
2022-09-16T23:52:32.742Z,100394.31
2022-09-16T23:55:34.314Z,100398.91
2022-09-16T23:58:36.281Z,100390.19
